Time,TemperatureF,DewpointF,PressureIn,WindDirection,WindDirectionDegrees,WindSpeedMPH,WindSpeedGustMPH,Humidity,HourlyPrecipIn,Conditions,Clouds,dailyrainin,SoftwareType,DateUTC
2013-12-18 00:12:00,21.0,17.0,29.68,SE,136,2.0,3.0,85,0.00,,,0.00,,2013-12-18 06:12:00,
2013-12-18 00:22:00,21.0,17.0,29.68,SE,143,2.0,4.0,86,0.00,,,0.00,,2013-12-18 06:22:00,
2013-12-18 00:42:00,21.0,18.0,29.66,SSE,159,6.0,8.0,87,0.00,,,0.00,,2013-12-18 06:42:00,
2013-12-18 00:53:00,22.0,18.0,29.65,SSE,162,3.0,8.0,86,0.00,,,0.00,,2013-12-18 06:53:00,
2013-12-18 01:12:00,22.0,18.0,29.64,SSE,165,3.0,6.0,85,0.00,,,0.00,,2013-12-18 07:12:00,
2013-12-18 01:22:00,22.0,18.0,29.63,SSE,165,3.0,4.0,86,0.00,,,0.00,,2013-12-18 07:22:00,
2013-12-18 01:42:00,23.0,20.0,29.63,South,186,3.0,8.0,87,0.00,,,0.00,,2013-12-18 07:42:00,
2013-12-18 01:53:00,24.0,20.0,29.63,South,172,2.0,6.0,86,0.00,,,0.00,,2013-12-18 07:53:00,
2013-12-18 02:12:00,24.0,20.0,29.62,South,171,3.0,4.0,85,0.00,,,0.00,,2013-12-18 08:12:00,
2013-12-18 02:22:00,24.0,20.0,29.61,South,190,2.0,4.0,85,0.00,,,0.00,,2013-12-18 08:22:00,
2013-12-18 02:42:00,24.0,20.0,29.61,South,190,1.0,3.0,86,0.00,,,0.00,,2013-12-18 08:42:00,
2013-12-18 02:52:00,24.0,20.0,29.62,SSW,194,3.0,4.0,86,0.00,,,0.00,,2013-12-18 08:52:00,
2013-12-18 03:11:00,24.0,20.0,29.60,SSW,200,3.0,5.0,86,0.00,,,0.00,,2013-12-18 09:11:00,
2013-12-18 03:22:00,24.0,20.0,29.60,SSW,200,0.0,2.0,86,0.00,,,0.00,,2013-12-18 09:22:00,
2013-12-18 03:43:00,24.0,21.0,29.60,SW,215,2.0,4.0,87,0.00,,,0.00,,2013-12-18 09:43:00,
2013-12-18 03:53:00,25.0,22.0,29.59,SW,215,2.0,3.0,88,0.00,,,0.00,,2013-12-18 09:53:00,
2013-12-18 04:13:00,25.0,22.0,29.58,SW,221,4.0,6.0,87,0.00,,,0.00,,2013-12-18 10:13:00,
2013-12-18 04:23:00,26.0,23.0,29.58,SW,220,4.0,6.0,87,0.00,,,0.00,,2013-12-18 10:23:00,
2013-12-18 04:33:00,26.0,23.0,29.58,SW,220,4.0,6.0,87,0.00,,,0.00,,2013-12-18 10:33:00,
2013-12-18 04:42:00,26.0,23.0,29.58,SW,220,4.0,6.0,87,0.00,,,0.00,,2013-12-18 10:42:00,
2013-12-18 04:52:00,26.0,23.0,29.58,SW,220,4.0,6.0,87,0.00,,,0.00,,2013-12-18 10:52:00,
2013-12-18 05:23:00,27.0,23.0,29.57,WNW,303,3.0,5.0,84,0.00,,,0.00,,2013-12-18 11:23:00,
2013-12-18 05:42:00,27.0,23.0,29.57,NW,308,2.0,4.0,84,0.00,,,0.00,,2013-12-18 11:42:00,
2013-12-18 05:53:00,27.0,23.0,29.57,NW,308,2.0,3.0,84,0.00,,,0.00,,2013-12-18 11:53:00,
2013-12-18 06:11:00,27.0,23.0,29.57,NW,309,1.0,4.0,84,0.00,,,0.00,,2013-12-18 12:11:00,
2013-12-18 06:22:00,27.0,23.0,29.57,NW,309,0.0,3.0,85,0.00,,,0.00,,2013-12-18 12:22:00,
2013-12-18 06:42:00,27.0,23.0,29.57,NW,313,3.0,4.0,85,0.00,,,0.00,,2013-12-18 12:42:00,
2013-12-18 06:52:00,28.0,24.0,29.57,NW,307,3.0,5.0,85,0.00,,,0.00,,2013-12-18 12:52:00,
2013-12-18 07:12:00,28.0,24.0,29.57,WNW,286,2.0,6.0,85,0.00,,,0.00,,2013-12-18 13:12:00,
2013-12-18 07:22:00,29.0,25.0,29.56,West,270,2.0,6.0,84,0.00,,,0.00,,2013-12-18 13:22:00,
2013-12-18 07:42:00,29.0,24.0,29.57,NW,310,4.0,6.0,82,0.00,,,0.00,,2013-12-18 13:42:00,
2013-12-18 07:52:00,29.0,24.0,29.57,NW,316,4.0,5.0,82,0.00,,,0.00,,2013-12-18 13:52:00,
2013-12-18 08:11:00,28.0,24.0,29.57,NW,316,3.0,5.0,83,0.00,,,0.00,,2013-12-18 14:11:00,
2013-12-18 08:22:00,28.0,24.0,29.56,NW,316,2.0,4.0,83,0.00,,,0.00,,2013-12-18 14:22:00,
2013-12-18 08:42:00,28.0,24.0,29.56,NW,315,3.0,4.0,83,0.00,,,0.00,,2013-12-18 14:42:00,
2013-12-18 08:52:00,30.0,26.0,29.56,West,263,4.0,7.0,85,0.00,,,0.00,,2013-12-18 14:52:00,
2013-12-18 09:11:00,34.0,28.0,29.57,West,262,6.0,13.0,79,0.00,,,0.00,,2013-12-18 15:11:00,
2013-12-18 09:22:00,35.0,28.0,29.57,WSW,257,7.0,13.0,74,0.00,,,0.00,,2013-12-18 15:22:00,
2013-12-18 09:44:00,36.0,28.0,29.58,West,261,5.0,9.0,73,0.00,,,0.00,,2013-12-18 15:44:00,
2013-12-18 09:53:00,36.0,28.0,29.58,WNW,286,3.0,11.0,72,0.00,,,0.00,,2013-12-18 15:53:00,
2013-12-18 10:23:00,37.0,28.0,29.58,West,262,5.0,11.0,71,0.00,,,0.00,,2013-12-18 16:23:00,
2013-12-18 10:42:00,38.0,29.0,29.58,West,272,5.0,11.0,70,0.00,,,0.00,,2013-12-18 16:42:00,
2013-12-18 10:53:00,41.0,30.0,29.58,West,270,10.0,17.0,65,0.00,,,0.00,,2013-12-18 16:53:00,
2013-12-18 11:12:00,42.0,30.0,29.58,WSW,253,7.0,16.0,62,0.00,,,0.00,,2013-12-18 17:12:00,
2013-12-18 11:22:00,42.0,30.0,29.59,West,269,6.0,13.0,62,0.00,,,0.00,,2013-12-18 17:22:00,
2013-12-18 11:42:00,41.0,30.0,29.59,WSW,250,8.0,13.0,64,0.00,,,0.00,,2013-12-18 17:42:00,
2013-12-18 11:52:00,42.0,30.0,29.59,West,281,4.0,10.0,63,0.00,,,0.00,,2013-12-18 17:52:00,
2013-12-18 12:12:00,42.0,30.0,29.58,NW,319,6.0,13.0,63,0.00,,,0.00,,2013-12-18 18:12:00,
2013-12-18 12:22:00,42.0,30.0,29.59,NW,325,5.0,9.0,63,0.00,,,0.00,,2013-12-18 18:22:00,
2013-12-18 12:42:00,43.0,31.0,29.59,NW,312,5.0,12.0,62,0.01,,,0.01,,2013-12-18 18:42:00,
2013-12-18 12:52:00,43.0,31.0,29.60,NW,317,6.0,10.0,63,0.01,,,0.01,,2013-12-18 18:52:00,
2013-12-18 13:11:00,43.0,32.0,29.59,West,280,6.0,11.0,64,0.01,,,0.01,,2013-12-18 19:11:00,
2013-12-18 13:21:00,43.0,32.0,29.59,WSW,255,4.0,9.0,64,0.01,,,0.01,,2013-12-18 19:21:00,
2013-12-18 13:42:00,43.0,32.0,29.59,NW,315,5.0,10.0,64,0.00,,,0.01,,2013-12-18 19:42:00,
2013-12-18 13:52:00,43.0,32.0,29.60,WNW,294,8.0,16.0,64,0.01,,,0.02,,2013-12-18 19:52:00,
2013-12-18 14:12:00,42.0,31.0,29.60,West,267,7.0,15.0,65,0.01,,,0.02,,2013-12-18 20:12:00,
2013-12-18 14:22:00,41.0,31.0,29.60,NW,324,9.0,17.0,67,0.01,,,0.02,,2013-12-18 20:22:00,
2013-12-18 14:42:00,41.0,31.0,29.60,NW,304,8.0,18.0,68,0.01,,,0.02,,2013-12-18 20:42:00,
2013-12-18 14:53:00,40.0,31.0,29.61,NNW,340,9.0,16.0,69,0.00,,,0.02,,2013-12-18 20:53:00,
2013-12-18 15:11:00,39.0,30.0,29.61,NW,321,8.0,19.0,71,0.00,,,0.02,,2013-12-18 21:11:00,
2013-12-18 15:22:00,39.0,31.0,29.61,NNW,338,10.0,18.0,72,0.00,,,0.02,,2013-12-18 21:22:00,
2013-12-18 15:43:00,38.0,30.0,29.63,NNW,331,8.0,15.0,73,0.00,,,0.02,,2013-12-18 21:43:00,
2013-12-18 15:53:00,37.0,29.0,29.64,NW,318,13.0,23.0,73,0.00,,,0.02,,2013-12-18 21:53:00,
2013-12-18 16:12:00,36.0,29.0,29.65,NW,323,11.0,20.0,75,0.00,,,0.02,,2013-12-18 22:12:00,
2013-12-18 16:23:00,36.0,29.0,29.67,NNW,327,7.0,14.0,77,0.00,,,0.02,,2013-12-18 22:23:00,
2013-12-18 16:43:00,35.0,29.0,29.68,NNW,336,9.0,16.0,77,0.00,,,0.02,,2013-12-18 22:43:00,
2013-12-18 16:53:00,34.0,28.0,29.70,NNW,348,8.0,19.0,79,0.00,,,0.02,,2013-12-18 22:53:00,
2013-12-18 17:12:00,33.0,27.0,29.72,NNW,340,10.0,14.0,79,0.00,,,0.02,,2013-12-18 23:12:00,
2013-12-18 17:22:00,32.0,27.0,29.72,WNW,302,11.0,16.0,82,0.00,,,0.02,,2013-12-18 23:22:00,
2013-12-18 17:42:00,32.0,27.0,29.74,NW,322,15.0,22.0,83,0.00,,,0.02,,2013-12-18 23:42:00,
2013-12-18 17:53:00,31.0,27.0,29.75,NW,313,11.0,19.0,84,0.00,,,0.02,,2013-12-18 23:53:00,
2013-12-18 18:11:00,31.0,27.0,29.75,NNW,333,13.0,18.0,85,0.00,,,0.02,,2013-12-19 00:11:00,
2013-12-18 18:22:00,31.0,27.0,29.76,NW,325,12.0,22.0,85,0.00,,,0.02,,2013-12-19 00:22:00,
2013-12-18 18:42:00,30.0,26.0,29.78,NNW,336,9.0,18.0,86,0.00,,,0.02,,2013-12-19 00:42:00,
2013-12-18 18:52:00,30.0,27.0,29.79,NNW,339,9.0,16.0,87,0.00,,,0.02,,2013-12-19 00:52:00,
2013-12-18 19:11:00,30.0,27.0,29.79,NNW,341,12.0,18.0,88,0.00,,,0.02,,2013-12-19 01:11:00,
2013-12-18 19:21:00,29.0,26.0,29.80,NNW,327,12.0,20.0,89,0.00,,,0.02,,2013-12-19 01:21:00,
2013-12-18 19:42:00,27.0,24.0,29.79,North,355,14.0,25.0,87,0.00,,,0.02,,2013-12-19 01:42:00,
2013-12-18 19:52:00,26.0,23.0,29.81,North,350,14.0,24.0,88,0.00,,,0.02,,2013-12-19 01:52:00,
2013-12-18 20:11:00,25.0,21.0,29.83,North,10,16.0,27.0,86,0.00,,,0.02,,2013-12-19 02:11:00,
2013-12-18 20:22:00,23.0,19.0,29.84,NNW,332,14.0,20.0,86,0.00,,,0.02,,2013-12-19 02:22:00,
2013-12-18 21:12:00,20.0,16.0,29.89,NNW,344,12.0,18.0,86,0.00,,,0.02,,2013-12-19 03:12:00,
2013-12-18 21:21:00,20.0,16.0,29.91,NNW,332,8.0,18.0,86,0.00,,,0.02,,2013-12-19 03:21:00,
2013-12-18 21:43:00,19.0,15.0,29.92,NW,324,10.0,17.0,85,0.00,,,0.02,,2013-12-19 03:43:00,
2013-12-18 21:54:00,17.0,12.0,29.93,NNW,342,11.0,20.0,82,0.00,,,0.02,,2013-12-19 03:54:00,
2013-12-18 22:12:00,15.0,11.0,29.94,NNE,13,11.0,19.0,82,0.00,,,0.02,,2013-12-19 04:12:00,
2013-12-18 22:23:00,14.0,10.0,29.96,North,355,8.0,16.0,83,0.00,,,0.02,,2013-12-19 04:23:00,
2013-12-18 22:43:00,13.0,9.0,29.96,North,350,8.0,16.0,82,0.00,,,0.02,,2013-12-19 04:43:00,
2013-12-18 22:53:00,12.0,8.0,29.97,NNW,338,7.0,16.0,83,0.00,,,0.02,,2013-12-19 04:53:00,
2013-12-18 23:12:00,11.0,7.0,29.98,North,355,8.0,14.0,84,0.00,,,0.02,,2013-12-19 05:12:00,
2013-12-18 23:22:00,11.0,7.0,29.98,North,355,9.0,16.0,84,0.00,,,0.02,,2013-12-19 05:22:00,
2013-12-18 23:42:00,10.0,6.0,29.98,NNW,346,10.0,15.0,85,0.00,,,0.02,,2013-12-19 05:42:00,
2013-12-18 23:52:00,10.0,6.0,29.98,North,355,10.0,15.0,85,0.00,,,0.02,,2013-12-19 05:52:00,